sensor_id;sensor_type;location;lat;lon;timestamp;P1;durP1;ratioP1;P2;durP2;ratioP2
23952;SDS011;12163;49.316;6.092;2022-10-16T00:00:47;3.30;;;1.20;;
23952;SDS011;12163;49.316;6.092;2022-10-16T00:03:14;8.85;;;1.08;;
23952;SDS011;12163;49.316;6.092;2022-10-16T00:05:41;3.40;;;1.00;;
23952;SDS011;12163;49.316;6.092;2022-10-16T00:08:09;2.90;;;1.05;;
23952;SDS011;12163;49.316;6.092;2022-10-16T00:10:37;2.33;;;1.20;;
23952;SDS011;12163;49.316;6.092;2022-10-16T00:13:04;2.10;;;1.08;;
23952;SDS011;12163;49.316;6.092;2022-10-16T00:15:37;2.63;;;0.88;;
23952;SDS011;12163;49.316;6.092;2022-10-16T00:18:06;7.65;;;1.10;;
23952;SDS011;12163;49.316;6.092;2022-10-16T00:20:33;4.88;;;1.40;;
23952;SDS011;12163;49.316;6.092;2022-10-16T00:23:01;2.67;;;1.02;;
23952;SDS011;12163;49.316;6.092;2022-10-16T00:25:27;3.65;;;0.80;;
23952;SDS011;12163;49.316;6.092;2022-10-16T00:27:54;1.38;;;0.80;;
23952;SDS011;12163;49.316;6.092;2022-10-16T00:30:20;6.63;;;1.00;;
23952;SDS011;12163;49.316;6.092;2022-10-16T00:32:47;2.13;;;0.80;;
23952;SDS011;12163;49.316;6.092;2022-10-16T00:35:14;5.45;;;0.60;;
23952;SDS011;12163;49.316;6.092;2022-10-16T00:37:40;0.70;;;0.50;;
23952;SDS011;12163;49.316;6.092;2022-10-16T00:40:07;2.53;;;0.60;;
23952;SDS011;12163;49.316;6.092;2022-10-16T00:42:34;2.25;;;0.70;;
23952;SDS011;12163;49.316;6.092;2022-10-16T00:45:00;3.78;;;0.88;;
23952;SDS011;12163;49.316;6.092;2022-10-16T00:47:28;4.50;;;0.63;;
23952;SDS011;12163;49.316;6.092;2022-10-16T00:50:03;1.15;;;0.52;;
23952;SDS011;12163;49.316;6.092;2022-10-16T00:52:34;3.58;;;0.57;;
23952;SDS011;12163;49.316;6.092;2022-10-16T00:55:03;1.77;;;0.43;;
23952;SDS011;12163;49.316;6.092;2022-10-16T00:57:31;2.25;;;0.60;;
23952;SDS011;12163;49.316;6.092;2022-10-16T00:59:57;2.22;;;0.70;;
23952;SDS011;12163;49.316;6.092;2022-10-16T01:02:25;1.60;;;0.60;;
23952;SDS011;12163;49.316;6.092;2022-10-16T01:04:52;1.88;;;0.60;;
23952;SDS011;12163;49.316;6.092;2022-10-16T01:09:57;1.60;;;0.82;;
23952;SDS011;12163;49.316;6.092;2022-10-16T01:18:15;7.57;;;1.20;;
23952;SDS011;12163;49.316;6.092;2022-10-16T01:20:52;3.90;;;0.85;;
23952;SDS011;12163;49.316;6.092;2022-10-16T01:28:34;1.45;;;0.60;;
23952;SDS011;12163;49.316;6.092;2022-10-16T01:31:23;2.53;;;0.47;;
23952;SDS011;12163;49.316;6.092;2022-10-16T01:34:05;3.10;;;0.77;;
23952;SDS011;12163;49.316;6.092;2022-10-16T01:39:47;3.92;;;0.90;;
23952;SDS011;12163;49.316;6.092;2022-10-16T01:42:19;5.40;;;0.90;;
23952;SDS011;12163;49.316;6.092;2022-10-16T01:44:53;3.45;;;0.63;;
23952;SDS011;12163;49.316;6.092;2022-10-16T01:47:23;0.70;;;0.40;;
23952;SDS011;12163;49.316;6.092;2022-10-16T01:49:52;1.70;;;0.57;;
23952;SDS011;12163;49.316;6.092;2022-10-16T01:52:22;2.58;;;0.93;;
23952;SDS011;12163;49.316;6.092;2022-10-16T01:54:53;6.30;;;1.00;;
23952;SDS011;12163;49.316;6.092;2022-10-16T01:57:22;5.85;;;0.68;;
23952;SDS011;12163;49.316;6.092;2022-10-16T01:59:53;1.90;;;0.77;;
23952;SDS011;12163;49.316;6.092;2022-10-16T02:02:22;3.40;;;0.85;;
23952;SDS011;12163;49.316;6.092;2022-10-16T02:04:54;3.20;;;0.75;;
23952;SDS011;12163;49.316;6.092;2022-10-16T02:07:28;4.18;;;0.73;;
23952;SDS011;12163;49.316;6.092;2022-10-16T02:09:54;4.35;;;0.90;;
23952;SDS011;12163;49.316;6.092;2022-10-16T02:12:29;1.63;;;0.63;;
23952;SDS011;12163;49.316;6.092;2022-10-16T02:14:59;2.63;;;0.93;;
23952;SDS011;12163;49.316;6.092;2022-10-16T02:17:25;4.85;;;0.65;;
23952;SDS011;12163;49.316;6.092;2022-10-16T02:19:53;2.28;;;0.70;;
23952;SDS011;12163;49.316;6.092;2022-10-16T02:25:03;0.82;;;0.57;;
23952;SDS011;12163;49.316;6.092;2022-10-16T02:30:55;3.05;;;0.50;;
23952;SDS011;12163;49.316;6.092;2022-10-16T02:33:17;2.03;;;0.60;;
23952;SDS011;12163;49.316;6.092;2022-10-16T02:35:47;1.60;;;0.70;;
23952;SDS011;12163;49.316;6.092;2022-10-16T02:38:17;3.30;;;0.68;;
23952;SDS011;12163;49.316;6.092;2022-10-16T02:40:45;3.00;;;0.73;;
23952;SDS011;12163;49.316;6.092;2022-10-16T02:43:12;4.07;;;0.60;;
23952;SDS011;12163;49.316;6.092;2022-10-16T02:45:39;2.10;;;0.52;;
23952;SDS011;12163;49.316;6.092;2022-10-16T02:48:06;5.30;;;0.98;;
23952;SDS011;12163;49.316;6.092;2022-10-16T02:50:33;4.63;;;0.80;;
23952;SDS011;12163;49.316;6.092;2022-10-16T02:53:00;3.47;;;0.60;;
23952;SDS011;12163;49.316;6.092;2022-10-16T02:55:26;1.55;;;0.40;;
23952;SDS011;12163;49.316;6.092;2022-10-16T02:57:54;8.02;;;0.93;;
23952;SDS011;12163;49.316;6.092;2022-10-16T03:00:21;0.63;;;0.63;;
23952;SDS011;12163;49.316;6.092;2022-10-16T03:02:48;3.80;;;0.68;;
23952;SDS011;12163;49.316;6.092;2022-10-16T03:05:15;1.33;;;0.50;;
23952;SDS011;12163;49.316;6.092;2022-10-16T03:07:42;2.13;;;0.40;;
23952;SDS011;12163;49.316;6.092;2022-10-16T03:10:08;4.90;;;0.57;;
23952;SDS011;12163;49.316;6.092;2022-10-16T03:12:35;3.75;;;0.40;;
23952;SDS011;12163;49.316;6.092;2022-10-16T03:15:02;2.28;;;0.63;;
23952;SDS011;12163;49.316;6.092;2022-10-16T03:17:29;2.50;;;0.57;;
23952;SDS011;12163;49.316;6.092;2022-10-16T03:19:56;2.72;;;0.82;;
23952;SDS011;12163;49.316;6.092;2022-10-16T03:22:22;4.45;;;0.80;;
23952;SDS011;12163;49.316;6.092;2022-10-16T03:24:49;3.42;;;0.52;;
23952;SDS011;12163;49.316;6.092;2022-10-16T03:27:15;1.48;;;0.70;;
23952;SDS011;12163;49.316;6.092;2022-10-16T03:29:42;3.97;;;0.75;;
23952;SDS011;12163;49.316;6.092;2022-10-16T03:32:08;3.55;;;0.80;;
23952;SDS011;12163;49.316;6.092;2022-10-16T03:34:35;3.22;;;1.00;;
23952;SDS011;12163;49.316;6.092;2022-10-16T03:37:02;3.75;;;0.63;;
23952;SDS011;12163;49.316;6.092;2022-10-16T03:39:29;3.03;;;0.70;;
23952;SDS011;12163;49.316;6.092;2022-10-16T03:41:55;3.30;;;0.63;;
23952;SDS011;12163;49.316;6.092;2022-10-16T03:44:22;8.07;;;0.70;;
23952;SDS011;12163;49.316;6.092;2022-10-16T03:46:48;2.42;;;0.60;;
23952;SDS011;12163;49.316;6.092;2022-10-16T03:49:15;1.58;;;0.80;;
23952;SDS011;12163;49.316;6.092;2022-10-16T03:51:41;16.20;;;0.82;;
23952;SDS011;12163;49.316;6.092;2022-10-16T03:54:09;2.10;;;0.75;;
23952;SDS011;12163;49.316;6.092;2022-10-16T03:56:36;9.07;;;0.80;;
23952;SDS011;12163;49.316;6.092;2022-10-16T03:59:02;1.55;;;0.50;;
23952;SDS011;12163;49.316;6.092;2022-10-16T04:01:29;7.57;;;0.70;;
23952;SDS011;12163;49.316;6.092;2022-10-16T04:03:55;6.03;;;1.05;;
23952;SDS011;12163;49.316;6.092;2022-10-16T04:06:22;6.65;;;1.00;;
23952;SDS011;12163;49.316;6.092;2022-10-16T04:08:48;6.28;;;0.88;;
23952;SDS011;12163;49.316;6.092;2022-10-16T04:11:15;2.22;;;1.10;;
23952;SDS011;12163;49.316;6.092;2022-10-16T04:13:42;3.78;;;1.15;;
23952;SDS011;12163;49.316;6.092;2022-10-16T04:16:08;1.40;;;1.27;;
23952;SDS011;12163;49.316;6.092;2022-10-16T04:18:35;3.70;;;1.38;;
23952;SDS011;12163;49.316;6.092;2022-10-16T04:21:05;3.50;;;1.45;;
23952;SDS011;12163;49.316;6.092;2022-10-16T04:23:32;5.70;;;1.45;;
23952;SDS011;12163;49.316;6.092;2022-10-16T04:25:59;7.90;;;1.27;;
23952;SDS011;12163;49.316;6.092;2022-10-16T04:28:26;5.38;;;1.40;;
23952;SDS011;12163;49.316;6.092;2022-10-16T04:30:53;3.38;;;1.25;;
23952;SDS011;12163;49.316;6.092;2022-10-16T04:33:20;6.32;;;1.52;;
23952;SDS011;12163;49.316;6.092;2022-10-16T04:35:47;8.35;;;1.25;;
23952;SDS011;12163;49.316;6.092;2022-10-16T04:38:13;2.90;;;1.40;;
23952;SDS011;12163;49.316;6.092;2022-10-16T04:40:41;4.53;;;1.40;;
23952;SDS011;12163;49.316;6.092;2022-10-16T04:43:09;13.00;;;1.75;;
23952;SDS011;12163;49.316;6.092;2022-10-16T04:45:35;5.90;;;1.50;;
23952;SDS011;12163;49.316;6.092;2022-10-16T04:48:02;5.45;;;1.80;;
23952;SDS011;12163;49.316;6.092;2022-10-16T04:50:29;6.53;;;1.55;;
23952;SDS011;12163;49.316;6.092;2022-10-16T04:52:55;5.38;;;1.63;;
23952;SDS011;12163;49.316;6.092;2022-10-16T04:55:22;2.33;;;0.98;;
23952;SDS011;12163;49.316;6.092;2022-10-16T04:57:48;1.10;;;0.60;;
23952;SDS011;12163;49.316;6.092;2022-10-16T05:00:15;3.55;;;0.95;;
23952;SDS011;12163;49.316;6.092;2022-10-16T05:02:42;7.95;;;0.82;;
23952;SDS011;12163;49.316;6.092;2022-10-16T05:05:09;4.15;;;1.02;;
23952;SDS011;12163;49.316;6.092;2022-10-16T05:07:35;5.53;;;1.00;;
23952;SDS011;12163;49.316;6.092;2022-10-16T05:10:02;4.93;;;1.05;;
23952;SDS011;12163;49.316;6.092;2022-10-16T05:12:29;4.70;;;0.90;;
23952;SDS011;12163;49.316;6.092;2022-10-16T05:14:55;3.15;;;0.98;;
23952;SDS011;12163;49.316;6.092;2022-10-16T05:17:25;7.25;;;1.38;;
23952;SDS011;12163;49.316;6.092;2022-10-16T05:19:53;4.38;;;1.30;;
23952;SDS011;12163;49.316;6.092;2022-10-16T05:22:20;3.95;;;1.70;;
23952;SDS011;12163;49.316;6.092;2022-10-16T05:24:46;13.70;;;1.45;;
23952;SDS011;12163;49.316;6.092;2022-10-16T05:27:13;5.32;;;0.98;;
23952;SDS011;12163;49.316;6.092;2022-10-16T05:29:45;1.83;;;0.90;;
23952;SDS011;12163;49.316;6.092;2022-10-16T05:32:16;8.95;;;0.90;;
23952;SDS011;12163;49.316;6.092;2022-10-16T05:34:44;2.45;;;0.88;;
23952;SDS011;12163;49.316;6.092;2022-10-16T05:37:11;6.47;;;0.90;;
23952;SDS011;12163;49.316;6.092;2022-10-16T05:39:38;5.13;;;0.90;;
23952;SDS011;12163;49.316;6.092;2022-10-16T05:42:05;10.13;;;1.20;;
23952;SDS011;12163;49.316;6.092;2022-10-16T05:44:32;3.80;;;1.20;;
23952;SDS011;12163;49.316;6.092;2022-10-16T05:47:04;9.65;;;1.50;;
23952;SDS011;12163;49.316;6.092;2022-10-16T05:49:30;3.33;;;1.30;;
23952;SDS011;12163;49.316;6.092;2022-10-16T05:51:57;2.10;;;1.02;;
23952;SDS011;12163;49.316;6.092;2022-10-16T05:54:23;3.38;;;0.90;;
23952;SDS011;12163;49.316;6.092;2022-10-16T05:56:50;2.70;;;0.80;;
23952;SDS011;12163;49.316;6.092;2022-10-16T05:59:16;5.03;;;1.10;;
23952;SDS011;12163;49.316;6.092;2022-10-16T06:01:43;4.47;;;2.20;;
23952;SDS011;12163;49.316;6.092;2022-10-16T06:04:10;7.25;;;1.67;;
23952;SDS011;12163;49.316;6.092;2022-10-16T06:06:41;3.20;;;1.38;;
23952;SDS011;12163;49.316;6.092;2022-10-16T06:09:08;3.00;;;1.05;;
23952;SDS011;12163;49.316;6.092;2022-10-16T06:11:35;8.93;;;1.10;;
23952;SDS011;12163;49.316;6.092;2022-10-16T06:14:02;2.45;;;0.93;;
23952;SDS011;12163;49.316;6.092;2022-10-16T06:16:33;9.75;;;1.15;;
23952;SDS011;12163;49.316;6.092;2022-10-16T06:19:02;3.28;;;1.85;;
23952;SDS011;12163;49.316;6.092;2022-10-16T06:21:32;7.70;;;2.00;;
23952;SDS011;12163;49.316;6.092;2022-10-16T06:23:59;5.82;;;2.13;;
23952;SDS011;12163;49.316;6.092;2022-10-16T06:26:26;3.83;;;2.00;;
23952;SDS011;12163;49.316;6.092;2022-10-16T06:28:55;3.72;;;2.28;;
23952;SDS011;12163;49.316;6.092;2022-10-16T06:31:23;11.60;;;2.30;;
23952;SDS011;12163;49.316;6.092;2022-10-16T06:33:53;5.65;;;2.50;;
23952;SDS011;12163;49.316;6.092;2022-10-16T06:36:21;6.60;;;2.78;;
23952;SDS011;12163;49.316;6.092;2022-10-16T06:38:47;4.65;;;2.70;;
23952;SDS011;12163;49.316;6.092;2022-10-16T06:41:15;3.97;;;2.30;;
23952;SDS011;12163;49.316;6.092;2022-10-16T06:43:46;7.03;;;3.25;;
23952;SDS011;12163;49.316;6.092;2022-10-16T06:46:14;3.92;;;2.47;;
23952;SDS011;12163;49.316;6.092;2022-10-16T06:48:43;3.25;;;2.45;;
23952;SDS011;12163;49.316;6.092;2022-10-16T06:51:19;6.00;;;2.78;;
23952;SDS011;12163;49.316;6.092;2022-10-16T06:53:51;8.48;;;2.88;;
23952;SDS011;12163;49.316;6.092;2022-10-16T06:56:28;5.17;;;2.50;;
23952;SDS011;12163;49.316;6.092;2022-10-16T06:58:57;6.57;;;2.75;;
23952;SDS011;12163;49.316;6.092;2022-10-16T07:01:24;7.20;;;2.92;;
23952;SDS011;12163;49.316;6.092;2022-10-16T07:03:51;6.07;;;3.10;;
23952;SDS011;12163;49.316;6.092;2022-10-16T07:06:20;8.20;;;3.28;;
23952;SDS011;12163;49.316;6.092;2022-10-16T07:08:48;9.27;;;3.70;;
23952;SDS011;12163;49.316;6.092;2022-10-16T07:11:15;6.25;;;3.72;;
23952;SDS011;12163;49.316;6.092;2022-10-16T07:13:44;7.50;;;4.30;;
23952;SDS011;12163;49.316;6.092;2022-10-16T07:16:20;5.65;;;4.57;;
23952;SDS011;12163;49.316;6.092;2022-10-16T07:18:48;7.43;;;3.97;;
23952;SDS011;12163;49.316;6.092;2022-10-16T07:21:16;7.13;;;4.82;;
23952;SDS011;12163;49.316;6.092;2022-10-16T07:23:45;10.45;;;5.43;;
23952;SDS011;12163;49.316;6.092;2022-10-16T07:26:16;11.60;;;4.40;;
23952;SDS011;12163;49.316;6.092;2022-10-16T07:28:43;9.70;;;6.15;;
23952;SDS011;12163;49.316;6.092;2022-10-16T07:31:11;9.57;;;5.13;;
23952;SDS011;12163;49.316;6.092;2022-10-16T07:33:40;10.63;;;5.95;;
23952;SDS011;12163;49.316;6.092;2022-10-16T07:36:09;12.68;;;6.45;;
23952;SDS011;12163;49.316;6.092;2022-10-16T07:38:41;9.20;;;6.95;;
23952;SDS011;12163;49.316;6.092;2022-10-16T07:41:09;8.75;;;5.50;;
23952;SDS011;12163;49.316;6.092;2022-10-16T07:46:11;6.78;;;5.32;;
23952;SDS011;12163;49.316;6.092;2022-10-16T07:48:38;5.22;;;3.50;;
23952;SDS011;12163;49.316;6.092;2022-10-16T07:51:05;6.40;;;3.30;;
23952;SDS011;12163;49.316;6.092;2022-10-16T07:53:33;5.32;;;3.08;;
23952;SDS011;12163;49.316;6.092;2022-10-16T07:56:00;6.70;;;3.47;;
23952;SDS011;12163;49.316;6.092;2022-10-16T07:58:28;6.05;;;3.47;;
23952;SDS011;12163;49.316;6.092;2022-10-16T08:00:56;6.60;;;3.20;;
23952;SDS011;12163;49.316;6.092;2022-10-16T08:03:23;6.80;;;3.28;;
23952;SDS011;12163;49.316;6.092;2022-10-16T08:05:50;6.93;;;3.13;;
23952;SDS011;12163;49.316;6.092;2022-10-16T08:08:17;6.35;;;3.30;;
23952;SDS011;12163;49.316;6.092;2022-10-16T08:10:44;3.55;;;2.75;;
23952;SDS011;12163;49.316;6.092;2022-10-16T08:13:11;12.02;;;3.40;;
23952;SDS011;12163;49.316;6.092;2022-10-16T08:15:42;5.00;;;3.17;;
23952;SDS011;12163;49.316;6.092;2022-10-16T08:18:09;6.10;;;4.47;;
23952;SDS011;12163;49.316;6.092;2022-10-16T08:20:37;5.88;;;4.30;;
23952;SDS011;12163;49.316;6.092;2022-10-16T08:23:04;7.07;;;4.57;;
23952;SDS011;12163;49.316;6.092;2022-10-16T08:25:33;6.05;;;3.72;;
23952;SDS011;12163;49.316;6.092;2022-10-16T08:28:05;7.00;;;3.58;;
23952;SDS011;12163;49.316;6.092;2022-10-16T08:30:33;4.30;;;3.17;;
23952;SDS011;12163;49.316;6.092;2022-10-16T08:33:00;4.35;;;3.08;;
23952;SDS011;12163;49.316;6.092;2022-10-16T08:35:27;5.07;;;2.90;;
23952;SDS011;12163;49.316;6.092;2022-10-16T08:37:54;6.90;;;2.88;;
23952;SDS011;12163;49.316;6.092;2022-10-16T08:40:24;9.57;;;3.40;;
23952;SDS011;12163;49.316;6.092;2022-10-16T08:42:57;4.28;;;3.22;;
23952;SDS011;12163;49.316;6.092;2022-10-16T08:51:01;5.00;;;3.42;;
23952;SDS011;12163;49.316;6.092;2022-10-16T08:53:30;5.10;;;3.85;;
23952;SDS011;12163;49.316;6.092;2022-10-16T08:56:04;8.10;;;3.60;;
23952;SDS011;12163;49.316;6.092;2022-10-16T08:58:32;7.60;;;3.85;;
23952;SDS011;12163;49.316;6.092;2022-10-16T09:01:00;6.10;;;3.67;;
23952;SDS011;12163;49.316;6.092;2022-10-16T09:20:16;6.35;;;4.93;;
23952;SDS011;12163;49.316;6.092;2022-10-16T09:22:49;13.32;;;4.05;;
23952;SDS011;12163;49.316;6.092;2022-10-16T09:25:21;10.40;;;4.05;;
23952;SDS011;12163;49.316;6.092;2022-10-16T09:27:55;5.20;;;3.55;;
23952;SDS011;12163;49.316;6.092;2022-10-16T09:30:22;8.40;;;4.45;;
23952;SDS011;12163;49.316;6.092;2022-10-16T09:32:53;6.22;;;3.30;;
23952;SDS011;12163;49.316;6.092;2022-10-16T09:35:35;24.55;;;13.25;;
23952;SDS011;12163;49.316;6.092;2022-10-16T09:38:04;9.27;;;5.22;;
23952;SDS011;12163;49.316;6.092;2022-10-16T09:40:32;8.23;;;5.10;;
23952;SDS011;12163;49.316;6.092;2022-10-16T09:43:19;10.73;;;4.70;;
23952;SDS011;12163;49.316;6.092;2022-10-16T09:46:08;9.40;;;5.32;;
23952;SDS011;12163;49.316;6.092;2022-10-16T09:48:47;10.52;;;6.25;;
23952;SDS011;12163;49.316;6.092;2022-10-16T09:53:57;11.82;;;5.30;;
23952;SDS011;12163;49.316;6.092;2022-10-16T09:56:27;9.57;;;6.30;;
23952;SDS011;12163;49.316;6.092;2022-10-16T09:59:03;10.75;;;5.95;;
23952;SDS011;12163;49.316;6.092;2022-10-16T10:01:36;10.40;;;6.35;;
23952;SDS011;12163;49.316;6.092;2022-10-16T10:04:05;11.10;;;5.90;;
23952;SDS011;12163;49.316;6.092;2022-10-16T10:06:36;13.73;;;7.07;;
23952;SDS011;12163;49.316;6.092;2022-10-16T10:14:34;11.48;;;7.15;;
23952;SDS011;12163;49.316;6.092;2022-10-16T10:19:44;10.18;;;6.40;;
23952;SDS011;12163;49.316;6.092;2022-10-16T10:22:17;25.55;;;10.82;;
23952;SDS011;12163;49.316;6.092;2022-10-16T10:24:44;13.30;;;8.13;;
23952;SDS011;12163;49.316;6.092;2022-10-16T10:27:21;12.35;;;6.90;;
23952;SDS011;12163;49.316;6.092;2022-10-16T10:35:27;9.55;;;6.00;;
23952;SDS011;12163;49.316;6.092;2022-10-16T10:46:55;13.18;;;6.43;;
23952;SDS011;12163;49.316;6.092;2022-10-16T10:49:20;93.70;;;54.80;;
23952;SDS011;12163;49.316;6.092;2022-10-16T10:54:39;66.43;;;39.42;;
23952;SDS011;12163;49.316;6.092;2022-10-16T11:00:23;18.90;;;13.13;;
23952;SDS011;12163;49.316;6.092;2022-10-16T11:06:21;18.70;;;12.73;;
23952;SDS011;12163;49.316;6.092;2022-10-16T11:08:53;13.70;;;7.57;;
23952;SDS011;12163;49.316;6.092;2022-10-16T11:11:31;12.60;;;6.90;;
23952;SDS011;12163;49.316;6.092;2022-10-16T11:16:37;11.30;;;7.07;;
23952;SDS011;12163;49.316;6.092;2022-10-16T11:19:12;32.80;;;23.83;;
23952;SDS011;12163;49.316;6.092;2022-10-16T11:21:58;20.25;;;14.55;;
23952;SDS011;12163;49.316;6.092;2022-10-16T11:26:59;11.60;;;7.03;;
23952;SDS011;12163;49.316;6.092;2022-10-16T11:29:33;10.77;;;7.78;;
23952;SDS011;12163;49.316;6.092;2022-10-16T11:32:11;13.98;;;7.45;;
23952;SDS011;12163;49.316;6.092;2022-10-16T11:34:55;12.50;;;8.10;;
23952;SDS011;12163;49.316;6.092;2022-10-16T11:37:40;17.63;;;8.57;;
23952;SDS011;12163;49.316;6.092;2022-10-16T11:40:22;13.27;;;7.82;;
23952;SDS011;12163;49.316;6.092;2022-10-16T11:42:51;17.95;;;8.82;;
23952;SDS011;12163;49.316;6.092;2022-10-16T11:45:30;16.98;;;8.63;;
23952;SDS011;12163;49.316;6.092;2022-10-16T11:48:23;15.52;;;7.93;;
23952;SDS011;12163;49.316;6.092;2022-10-16T11:50:57;14.35;;;8.10;;
23952;SDS011;12163;49.316;6.092;2022-10-16T11:56:02;12.32;;;7.93;;
23952;SDS011;12163;49.316;6.092;2022-10-16T11:58:31;10.82;;;7.50;;
23952;SDS011;12163;49.316;6.092;2022-10-16T12:01:12;13.88;;;7.70;;
23952;SDS011;12163;49.316;6.092;2022-10-16T12:04:06;14.60;;;7.45;;
23952;SDS011;12163;49.316;6.092;2022-10-16T12:09:22;13.90;;;7.32;;
23952;SDS011;12163;49.316;6.092;2022-10-16T12:11:53;12.75;;;6.85;;
23952;SDS011;12163;49.316;6.092;2022-10-16T12:19:22;14.05;;;6.93;;
23952;SDS011;12163;49.316;6.092;2022-10-16T12:21:51;22.25;;;7.82;;
23952;SDS011;12163;49.316;6.092;2022-10-16T12:26:59;14.73;;;7.93;;
23952;SDS011;12163;49.316;6.092;2022-10-16T12:31:56;10.93;;;6.88;;
23952;SDS011;12163;49.316;6.092;2022-10-16T12:36:53;13.27;;;6.95;;
23952;SDS011;12163;49.316;6.092;2022-10-16T12:39:24;16.23;;;7.70;;
23952;SDS011;12163;49.316;6.092;2022-10-16T12:42:00;15.30;;;7.53;;
23952;SDS011;12163;49.316;6.092;2022-10-16T12:44:33;14.52;;;7.20;;
23952;SDS011;12163;49.316;6.092;2022-10-16T12:47:01;18.88;;;7.10;;
23952;SDS011;12163;49.316;6.092;2022-10-16T12:51:56;17.17;;;6.57;;
23952;SDS011;12163;49.316;6.092;2022-10-16T12:54:37;10.13;;;6.40;;
23952;SDS011;12163;49.316;6.092;2022-10-16T13:00:02;12.00;;;6.88;;
23952;SDS011;12163;49.316;6.092;2022-10-16T13:13:59;14.25;;;7.47;;
23952;SDS011;12163;49.316;6.092;2022-10-16T13:17:13;14.60;;;7.00;;
23952;SDS011;12163;49.316;6.092;2022-10-16T13:27:59;8.63;;;6.72;;
23952;SDS011;12163;49.316;6.092;2022-10-16T13:30:28;13.65;;;7.45;;
23952;SDS011;12163;49.316;6.092;2022-10-16T13:33:07;12.23;;;6.38;;
23952;SDS011;12163;49.316;6.092;2022-10-16T13:35:51;12.95;;;5.82;;
23952;SDS011;12163;49.316;6.092;2022-10-16T13:38:21;11.00;;;5.95;;
23952;SDS011;12163;49.316;6.092;2022-10-16T13:40:49;9.52;;;5.68;;
23952;SDS011;12163;49.316;6.092;2022-10-16T13:43:26;9.45;;;5.55;;
23952;SDS011;12163;49.316;6.092;2022-10-16T13:48:32;11.88;;;5.57;;
23952;SDS011;12163;49.316;6.092;2022-10-16T13:51:01;14.82;;;6.20;;
23952;SDS011;12163;49.316;6.092;2022-10-16T13:53:46;10.68;;;6.20;;
23952;SDS011;12163;49.316;6.092;2022-10-16T13:56:16;14.48;;;5.82;;
23952;SDS011;12163;49.316;6.092;2022-10-16T14:01:34;12.98;;;6.57;;
23952;SDS011;12163;49.316;6.092;2022-10-16T14:04:08;12.48;;;5.85;;
23952;SDS011;12163;49.316;6.092;2022-10-16T14:06:42;12.23;;;6.60;;
23952;SDS011;12163;49.316;6.092;2022-10-16T14:09:24;14.48;;;9.27;;
23952;SDS011;12163;49.316;6.092;2022-10-16T14:12:02;18.38;;;8.90;;
23952;SDS011;12163;49.316;6.092;2022-10-16T14:14:35;29.85;;;19.20;;
23952;SDS011;12163;49.316;6.092;2022-10-16T14:17:18;17.15;;;10.18;;
23952;SDS011;12163;49.316;6.092;2022-10-16T14:19:48;13.90;;;7.65;;
23952;SDS011;12163;49.316;6.092;2022-10-16T14:25:13;9.93;;;5.80;;
23952;SDS011;12163;49.316;6.092;2022-10-16T14:27:57;11.20;;;5.47;;
23952;SDS011;12163;49.316;6.092;2022-10-16T14:30:27;14.75;;;6.47;;
23952;SDS011;12163;49.316;6.092;2022-10-16T14:32:56;13.77;;;6.93;;
23952;SDS011;12163;49.316;6.092;2022-10-16T14:37:54;13.63;;;9.25;;
23952;SDS011;12163;49.316;6.092;2022-10-16T14:40:27;16.50;;;9.75;;
23952;SDS011;12163;49.316;6.092;2022-10-16T14:42:56;21.35;;;11.32;;
23952;SDS011;12163;49.316;6.092;2022-10-16T14:45:24;9.00;;;5.07;;
23952;SDS011;12163;49.316;6.092;2022-10-16T14:47:56;17.97;;;8.53;;
23952;SDS011;12163;49.316;6.092;2022-10-16T14:50:25;24.67;;;15.55;;
23952;SDS011;12163;49.316;6.092;2022-10-16T14:52:51;10.52;;;6.50;;
23952;SDS011;12163;49.316;6.092;2022-10-16T14:55:18;16.40;;;11.45;;
23952;SDS011;12163;49.316;6.092;2022-10-16T14:57:45;24.27;;;8.23;;
23952;SDS011;12163;49.316;6.092;2022-10-16T15:02:39;17.90;;;10.98;;
23952;SDS011;12163;49.316;6.092;2022-10-16T15:07:46;12.35;;;4.25;;
23952;SDS011;12163;49.316;6.092;2022-10-16T15:10:13;15.05;;;6.97;;
23952;SDS011;12163;49.316;6.092;2022-10-16T15:12:40;10.18;;;4.40;;
23952;SDS011;12163;49.316;6.092;2022-10-16T15:20:19;11.52;;;5.05;;
23952;SDS011;12163;49.316;6.092;2022-10-16T15:22:46;14.63;;;4.70;;
23952;SDS011;12163;49.316;6.092;2022-10-16T15:25:32;14.90;;;4.10;;
23952;SDS011;12163;49.316;6.092;2022-10-16T15:28:08;11.65;;;5.07;;
23952;SDS011;12163;49.316;6.092;2022-10-16T15:30:36;12.35;;;4.38;;
23952;SDS011;12163;49.316;6.092;2022-10-16T15:33:04;11.30;;;4.80;;
23952;SDS011;12163;49.316;6.092;2022-10-16T15:35:32;12.15;;;5.90;;
23952;SDS011;12163;49.316;6.092;2022-10-16T15:37:58;13.52;;;5.55;;
23952;SDS011;12163;49.316;6.092;2022-10-16T15:40:25;15.32;;;5.78;;
23952;SDS011;12163;49.316;6.092;2022-10-16T15:42:51;19.50;;;7.18;;
23952;SDS011;12163;49.316;6.092;2022-10-16T15:45:18;11.70;;;5.78;;
23952;SDS011;12163;49.316;6.092;2022-10-16T15:47:45;15.07;;;5.60;;
23952;SDS011;12163;49.316;6.092;2022-10-16T15:50:14;13.82;;;5.70;;
23952;SDS011;12163;49.316;6.092;2022-10-16T15:52:41;14.82;;;5.75;;
23952;SDS011;12163;49.316;6.092;2022-10-16T15:55:09;18.92;;;5.60;;
23952;SDS011;12163;49.316;6.092;2022-10-16T15:57:36;15.48;;;6.60;;
23952;SDS011;12163;49.316;6.092;2022-10-16T16:00:06;13.20;;;6.05;;
23952;SDS011;12163;49.316;6.092;2022-10-16T16:02:37;18.35;;;5.95;;
23952;SDS011;12163;49.316;6.092;2022-10-16T16:05:05;14.88;;;6.07;;
23952;SDS011;12163;49.316;6.092;2022-10-16T16:07:35;12.43;;;6.28;;
23952;SDS011;12163;49.316;6.092;2022-10-16T16:10:03;16.45;;;6.35;;
23952;SDS011;12163;49.316;6.092;2022-10-16T16:12:32;10.63;;;5.60;;
23952;SDS011;12163;49.316;6.092;2022-10-16T16:14:59;15.15;;;6.25;;
23952;SDS011;12163;49.316;6.092;2022-10-16T16:17:31;17.92;;;6.32;;
23952;SDS011;12163;49.316;6.092;2022-10-16T16:19:58;13.80;;;6.75;;
23952;SDS011;12163;49.316;6.092;2022-10-16T16:22:25;14.30;;;7.45;;
23952;SDS011;12163;49.316;6.092;2022-10-16T16:24:52;19.35;;;7.40;;
23952;SDS011;12163;49.316;6.092;2022-10-16T16:27:19;19.75;;;7.07;;
23952;SDS011;12163;49.316;6.092;2022-10-16T16:29:46;11.18;;;7.20;;
23952;SDS011;12163;49.316;6.092;2022-10-16T16:32:13;19.55;;;7.90;;
23952;SDS011;12163;49.316;6.092;2022-10-16T16:34:39;20.20;;;8.35;;
23952;SDS011;12163;49.316;6.092;2022-10-16T16:37:06;18.83;;;8.52;;
23952;SDS011;12163;49.316;6.092;2022-10-16T16:39:32;21.40;;;8.07;;
23952;SDS011;12163;49.316;6.092;2022-10-16T16:41:59;17.88;;;8.05;;
23952;SDS011;12163;49.316;6.092;2022-10-16T16:44:26;19.70;;;10.48;;
23952;SDS011;12163;49.316;6.092;2022-10-16T16:46:52;15.32;;;9.07;;
23952;SDS011;12163;49.316;6.092;2022-10-16T16:49:19;16.15;;;7.97;;
23952;SDS011;12163;49.316;6.092;2022-10-16T16:51:45;22.33;;;8.30;;
23952;SDS011;12163;49.316;6.092;2022-10-16T16:54:12;18.15;;;8.75;;
23952;SDS011;12163;49.316;6.092;2022-10-16T16:56:40;18.63;;;8.90;;
23952;SDS011;12163;49.316;6.092;2022-10-16T16:59:14;17.80;;;9.25;;
23952;SDS011;12163;49.316;6.092;2022-10-16T17:01:43;22.10;;;9.32;;
23952;SDS011;12163;49.316;6.092;2022-10-16T17:04:10;16.95;;;7.70;;
23952;SDS011;12163;49.316;6.092;2022-10-16T17:06:37;14.95;;;8.20;;
23952;SDS011;12163;49.316;6.092;2022-10-16T17:09:04;14.75;;;7.63;;
23952;SDS011;12163;49.316;6.092;2022-10-16T17:11:32;15.13;;;6.65;;
23952;SDS011;12163;49.316;6.092;2022-10-16T17:13:59;14.10;;;7.88;;
23952;SDS011;12163;49.316;6.092;2022-10-16T17:16:29;21.45;;;7.65;;
23952;SDS011;12163;49.316;6.092;2022-10-16T17:19:01;13.77;;;6.78;;
23952;SDS011;12163;49.316;6.092;2022-10-16T17:21:32;18.58;;;8.30;;
23952;SDS011;12163;49.316;6.092;2022-10-16T17:24:00;19.17;;;6.85;;
23952;SDS011;12163;49.316;6.092;2022-10-16T17:26:26;16.90;;;7.57;;